createdAt,value
2022-12-14T00:00:07.836Z,100142.31
2022-12-14T00:02:44.334Z,100152.69
2022-12-14T00:05:16.053Z,100140.28
2022-12-14T00:07:47.060Z,100143.97
2022-12-14T00:10:20.462Z,100146.31
2022-12-14T00:12:48.279Z,100130.28
2022-12-14T00:15:16.477Z,100137.84
2022-12-14T00:17:51.557Z,100137.44
2022-12-14T00:20:21.973Z,100125.47
2022-12-14T00:22:50.095Z,100123.06
2022-12-14T00:25:25.522Z,100133.03
2022-12-14T00:27:53.329Z,100137.00
2022-12-14T00:30:26.243Z,100150.22
2022-12-14T00:32:58.954Z,100140.97
2022-12-14T00:35:36.287Z,100138.53
2022-12-14T00:38:04.090Z,100148.16
2022-12-14T00:40:35.233Z,100142.19
2022-12-14T00:43:02.761Z,100148.66
2022-12-14T00:45:34.198Z,100138.94
2022-12-14T00:48:02.431Z,100134.63
2022-12-14T00:50:32.306Z,100136.97
2022-12-14T00:53:00.238Z,100139.00
2022-12-14T00:55:30.606Z,100134.16
2022-12-14T00:58:04.311Z,100136.94
2022-12-14T01:00:32.788Z,100130.97
2022-12-14T01:03:00.562Z,100125.66
2022-12-14T01:05:32.265Z,100129.72
2022-12-14T01:08:03.043Z,100128.06
2022-12-14T01:10:36.719Z,100124.94
2022-12-14T01:13:04.305Z,100128.19
2022-12-14T01:15:35.443Z,100136.22
2022-12-14T01:18:03.309Z,100131.38
2022-12-14T01:20:31.125Z,100134.19
2022-12-14T01:22:59.009Z,100124.56
2022-12-14T01:25:29.401Z,100130.22
2022-12-14T01:28:00.277Z,100129.75
2022-12-14T01:30:28.071Z,100134.16
2022-12-14T01:32:55.733Z,100131.84
2022-12-14T01:35:26.452Z,100121.00
2022-12-14T01:37:54.031Z,100121.09
2022-12-14T01:40:26.990Z,100116.63
2022-12-14T01:42:55.219Z,100117.84
2022-12-14T01:45:23.370Z,100118.78
2022-12-14T01:48:02.783Z,100123.91
2022-12-14T01:50:41.685Z,100118.69
2022-12-14T01:53:19.535Z,100123.84
2022-12-14T01:55:54.407Z,100127.84
2022-12-14T01:58:24.625Z,100130.72
2022-12-14T02:01:01.615Z,100125.53
2022-12-14T02:03:37.065Z,100111.38
2022-12-14T02:06:12.138Z,100108.22
2022-12-14T02:08:44.232Z,100109.19
2022-12-14T02:11:22.727Z,100098.78
2022-12-14T02:13:54.449Z,100094.34
2022-12-14T02:16:25.147Z,100098.41
2022-12-14T02:18:52.997Z,100097.66
2022-12-14T02:21:35.220Z,100088.41
2022-12-14T02:25:00.387Z,100079.59
2022-12-14T02:27:43.625Z,100069.94
2022-12-14T02:30:17.730Z,100067.53
2022-12-14T02:33:24.877Z,100053.09
2022-12-14T02:36:21.342Z,100055.56
2022-12-14T02:39:10.645Z,100043.88
2022-12-14T02:41:56.396Z,100034.63
2022-12-14T02:45:08.349Z,100032.22
2022-12-14T02:47:57.234Z,100034.19
2022-12-14T02:50:40.014Z,100030.19
2022-12-14T02:53:24.985Z,100024.94
2022-12-14T02:55:57.328Z,100035.00
2022-12-14T02:58:33.430Z,100030.59
2022-12-14T03:01:04.976Z,100032.56
2022-12-14T03:03:35.250Z,100026.94
2022-12-14T03:06:14.632Z,100028.97
2022-12-14T03:08:49.929Z,100027.34
2022-12-14T03:11:22.619Z,100035.00
2022-12-14T03:14:03.341Z,100035.81
2022-12-14T03:16:44.826Z,100028.56
2022-12-14T03:19:25.844Z,100024.13
2022-12-14T03:22:01.500Z,100016.84
2022-12-14T03:24:38.507Z,100015.63
2022-12-14T03:27:19.313Z,100009.56
2022-12-14T03:29:58.653Z,100005.91
2022-12-14T03:32:30.970Z,100011.13
2022-12-14T03:35:04.545Z,100005.47
2022-12-14T03:37:51.429Z,100001.41
2022-12-14T03:40:28.940Z,99993.78
2022-12-14T03:43:02.611Z,99993.81
2022-12-14T03:45:32.791Z,99995.41
2022-12-14T03:48:14.331Z,99998.25
2022-12-14T03:50:55.521Z,99993.38
2022-12-14T03:53:32.995Z,99990.97
2022-12-14T03:56:12.938Z,99984.47
2022-12-14T03:58:53.816Z,99982.94
2022-12-14T04:01:30.769Z,99976.81
2022-12-14T04:04:07.451Z,99976.91
2022-12-14T04:06:49.900Z,99974.44
2022-12-14T04:09:25.849Z,99971.66
2022-12-14T04:12:26.651Z,99964.47
2022-12-14T04:15:31.966Z,99958.03
2022-12-14T04:18:31.646Z,99958.41
2022-12-14T04:21:20.071Z,99946.75
2022-12-14T04:24:15.807Z,99953.53
2022-12-14T04:26:53.107Z,99952.38
2022-12-14T04:29:51.207Z,99950.28
2022-12-14T04:32:42.541Z,99950.72
2022-12-14T04:35:34.566Z,99945.06
2022-12-14T04:38:19.912Z,99944.66
2022-12-14T04:40:56.114Z,99945.88
2022-12-14T04:43:29.551Z,99948.25
2022-12-14T04:46:09.057Z,99944.28
2022-12-14T04:48:39.970Z,99944.63
2022-12-14T04:51:14.671Z,99939.09
2022-12-14T04:53:45.424Z,99935.81
2022-12-14T04:56:25.982Z,99940.25
2022-12-14T04:58:59.645Z,99945.13
2022-12-14T05:01:33.290Z,99943.47
2022-12-14T05:04:21.695Z,99939.03
2022-12-14T05:07:25.152Z,99938.19
2022-12-14T05:09:59.829Z,99935.84
2022-12-14T05:12:38.616Z,99937.09
2022-12-14T05:15:17.756Z,99935.47
2022-12-14T05:17:48.135Z,99940.22
2022-12-14T05:20:19.609Z,99943.06
2022-12-14T05:22:50.759Z,99926.66
2022-12-14T05:25:24.480Z,99933.47
2022-12-14T05:27:52.025Z,99934.19
2022-12-14T05:30:20.837Z,99936.22
2022-12-14T05:32:51.198Z,99937.41
2022-12-14T05:35:19.233Z,99928.97
2022-12-14T05:37:52.362Z,99929.78
2022-12-14T05:40:25.552Z,99918.88
2022-12-14T05:43:13.467Z,99915.69
2022-12-14T05:45:41.357Z,99916.94
2022-12-14T05:48:11.723Z,99914.13
2022-12-14T05:50:42.257Z,99913.75
2022-12-14T05:53:17.724Z,99912.19
2022-12-14T05:55:50.335Z,99910.19
2022-12-14T05:58:18.652Z,99915.81
2022-12-14T06:00:47.672Z,99914.22
2022-12-14T06:03:18.535Z,99912.63
2022-12-14T06:05:48.943Z,99906.50
2022-12-14T06:08:19.736Z,99912.19
2022-12-14T06:10:53.259Z,99912.56
2022-12-14T06:13:28.089Z,99916.94
2022-12-14T06:15:58.667Z,99920.97
2022-12-14T06:18:29.693Z,99913.28
2022-12-14T06:21:01.877Z,99926.16
2022-12-14T06:23:31.152Z,99920.19
2022-12-14T06:25:58.927Z,99911.31
2022-12-14T06:28:30.798Z,99920.97
2022-12-14T06:30:59.055Z,99922.94
2022-12-14T06:33:27.496Z,99926.59
2022-12-14T06:35:58.574Z,99914.91
2022-12-14T06:38:28.905Z,99909.72
2022-12-14T06:40:56.524Z,99920.56
2022-12-14T06:43:30.079Z,99933.03
2022-12-14T06:46:03.200Z,99929.03
2022-12-14T06:48:33.786Z,99932.28
2022-12-14T06:51:06.524Z,99933.09
2022-12-14T06:53:35.639Z,99935.53
2022-12-14T06:56:14.385Z,99934.63
2022-12-14T06:58:45.798Z,99940.72
2022-12-14T07:01:25.569Z,99945.56
2022-12-14T07:03:59.842Z,99942.25
2022-12-14T07:06:41.206Z,99934.13
2022-12-14T07:09:14.251Z,99930.94
2022-12-14T07:11:43.849Z,99931.69
2022-12-14T07:14:16.808Z,99931.69
2022-12-14T07:16:53.775Z,99935.72
2022-12-14T07:19:30.609Z,99952.25
2022-12-14T07:22:04.282Z,99968.31
2022-12-14T07:24:37.996Z,99958.72
2022-12-14T07:27:12.462Z,99941.56
2022-12-14T07:29:48.911Z,99945.19
2022-12-14T07:32:22.964Z,99956.44
2022-12-14T07:34:59.395Z,99952.84
2022-12-14T07:37:35.891Z,99938.34
2022-12-14T07:40:12.690Z,99937.16
2022-12-14T07:42:51.614Z,99948.44
2022-12-14T07:45:30.423Z,99951.66
2022-12-14T07:48:16.826Z,99937.16
2022-12-14T07:50:52.337Z,99940.78
2022-12-14T07:53:30.264Z,99943.22
2022-12-14T07:56:30.713Z,99941.22
2022-12-14T07:59:13.487Z,99930.34
2022-12-14T08:01:57.311Z,99936.78
2022-12-14T08:04:46.015Z,99927.94
2022-12-14T08:07:22.963Z,99925.94
2022-12-14T08:09:59.971Z,99948.47
2022-12-14T08:12:45.967Z,99954.09
2022-12-14T08:15:23.155Z,99957.72
2022-12-14T08:17:59.282Z,99954.91
2022-12-14T08:20:38.047Z,99947.63
2022-12-14T08:23:18.641Z,99949.22
2022-12-14T08:26:04.342Z,99968.50
2022-12-14T08:28:40.207Z,99969.34
2022-12-14T08:31:21.779Z,99964.94
2022-12-14T08:33:57.631Z,99958.91
2022-12-14T08:36:40.341Z,99964.53
2022-12-14T08:39:17.139Z,99962.94
2022-12-14T08:41:54.545Z,99958.09
2022-12-14T08:44:31.873Z,99958.50
2022-12-14T08:47:10.504Z,99958.47
2022-12-14T08:49:46.130Z,99959.28
2022-12-14T08:52:25.690Z,99963.72
2022-12-14T08:55:01.551Z,99971.38
2022-12-14T08:57:44.659Z,99981.03
2022-12-14T09:00:26.180Z,99982.25
2022-12-14T09:03:08.240Z,99979.41
2022-12-14T09:05:36.365Z,99980.47
2022-12-14T09:08:09.368Z,99982.78
2022-12-14T09:10:38.861Z,99986.69
2022-12-14T09:13:10.371Z,99979.88
2022-12-14T09:15:41.624Z,99982.41
2022-12-14T09:18:15.234Z,99993.22
2022-12-14T09:20:45.984Z,99990.22
2022-12-14T09:23:19.725Z,99982.28
2022-12-14T09:25:47.741Z,99980.00
2022-12-14T09:28:18.116Z,99989.13
2022-12-14T09:30:46.915Z,99980.53
2022-12-14T09:33:14.988Z,99977.59
2022-12-14T09:35:47.559Z,99980.97
2022-12-14T09:38:20.283Z,99979.41
2022-12-14T09:40:57.830Z,99971.72
2022-12-14T09:43:44.149Z,99969.28
2022-12-14T09:46:45.460Z,99972.03
2022-12-14T09:49:30.520Z,99965.28
2022-12-14T09:52:10.451Z,99954.44
2022-12-14T09:54:40.544Z,99952.41
2022-12-14T09:57:19.270Z,99942.78
2022-12-14T09:59:47.657Z,99949.22
2022-12-14T10:02:31.800Z,99947.63
2022-12-14T10:05:19.182Z,99941.22
2022-12-14T10:08:09.022Z,99934.78
2022-12-14T10:11:18.314Z,99947.63
2022-12-14T10:14:16.863Z,99944.03
2022-12-14T10:16:56.388Z,99932.75
2022-12-14T10:19:45.144Z,99931.56
2022-12-14T10:22:23.315Z,99929.94
2022-12-14T10:25:09.981Z,99919.88
2022-12-14T10:28:09.350Z,99922.31
2022-12-14T10:30:33.182Z,99921.50
2022-12-14T10:33:34.718Z,99917.88
2022-12-14T10:36:02.629Z,99913.03
2022-12-14T10:39:02.189Z,99915.84
2022-12-14T10:41:49.644Z,99907.03
2022-12-14T10:44:23.976Z,99909.03
2022-12-14T10:47:05.064Z,99907.00
2022-12-14T10:49:55.721Z,99905.41
2022-12-14T10:52:34.540Z,99894.94
2022-12-14T10:55:16.409Z,99883.66
2022-12-14T10:57:49.309Z,99881.59
2022-12-14T11:00:24.423Z,99875.84
2022-12-14T11:02:58.253Z,99871.06
2022-12-14T11:05:51.956Z,99863.38
2022-12-14T11:08:41.528Z,99865.81
2022-12-14T11:11:19.659Z,99870.28
2022-12-14T11:14:06.263Z,99865.03
2022-12-14T11:16:40.554Z,99864.56
2022-12-14T11:19:22.716Z,99856.13
2022-12-14T11:22:05.846Z,99863.41
2022-12-14T11:24:42.928Z,99863.88
2022-12-14T11:27:18.208Z,99865.09
2022-12-14T11:29:56.555Z,99855.88
2022-12-14T11:32:27.681Z,99858.25
2022-12-14T11:35:02.809Z,99852.19
2022-12-14T11:37:38.088Z,99844.94
2022-12-14T11:40:07.153Z,99844.13
2022-12-14T11:42:37.530Z,99838.09
2022-12-14T11:45:32.135Z,99830.06
2022-12-14T12:02:51.448Z,99816.53
2022-12-14T12:06:04.744Z,99801.59
2022-12-14T12:15:42.139Z,99809.81
2022-12-14T12:29:07.378Z,99819.91
2022-12-14T12:39:27.311Z,99823.53
2022-12-14T12:46:21.293Z,99824.47
2022-12-14T12:49:38.538Z,99822.84
2022-12-14T12:59:35.100Z,99811.00
2022-12-14T13:02:56.460Z,99821.09
2022-12-14T13:06:07.861Z,99797.41
2022-12-14T13:09:25.163Z,99808.72
2022-12-14T13:12:56.367Z,99797.84
2022-12-14T13:16:05.130Z,99795.06
2022-12-14T13:19:40.907Z,99780.88
2022-12-14T13:22:23.836Z,99780.84
2022-12-14T13:24:59.251Z,99780.06
2022-12-14T13:27:52.687Z,99776.91
2022-12-14T13:30:38.875Z,99766.00
2022-12-14T13:33:51.158Z,99774.81
2022-12-14T13:36:31.304Z,99771.84
2022-12-14T13:39:24.759Z,99763.03
2022-12-14T13:42:07.133Z,99765.56
2022-12-14T13:44:55.595Z,99776.47
2022-12-14T13:47:40.974Z,99764.75
2022-12-14T13:50:36.191Z,99762.38
2022-12-14T13:53:18.958Z,99767.50
2022-12-14T13:55:53.189Z,99772.63
2022-12-14T13:58:39.024Z,99768.53
2022-12-14T14:01:09.063Z,99753.41
2022-12-14T14:03:40.180Z,99759.44
2022-12-14T14:06:09.748Z,99768.38
2022-12-14T14:08:45.366Z,99749.47
2022-12-14T14:11:38.944Z,99746.28
2022-12-14T14:14:40.213Z,99756.59
2022-12-14T14:17:45.059Z,99759.00
2022-12-14T14:20:34.960Z,99751.09
2022-12-14T14:23:31.339Z,99746.16
2022-12-14T14:26:29.575Z,99751.13
2022-12-14T14:29:29.434Z,99754.63
2022-12-14T14:32:02.968Z,99771.19
2022-12-14T14:34:46.525Z,99770.38
2022-12-14T14:37:51.974Z,99769.47
2022-12-14T14:43:30.586Z,99765.88
2022-12-14T14:46:08.178Z,99763.03
2022-12-14T14:48:50.457Z,99765.53
2022-12-14T14:51:35.277Z,99756.75
2022-12-14T14:55:03.655Z,99749.03
2022-12-14T14:57:55.386Z,99742.47
2022-12-14T15:00:27.981Z,99728.44
2022-12-14T15:03:01.812Z,99721.28
2022-12-14T15:05:43.153Z,99726.91
2022-12-14T15:08:37.107Z,99743.00
2022-12-14T15:11:23.446Z,99739.84
2022-12-14T15:13:59.710Z,99733.38
2022-12-14T15:16:42.247Z,99727.38
2022-12-14T15:19:30.450Z,99730.22
2022-12-14T15:22:03.608Z,99735.69
2022-12-14T15:24:42.876Z,99724.78
2022-12-14T15:27:29.629Z,99737.38
2022-12-14T15:30:12.766Z,99740.16
2022-12-14T15:32:47.639Z,99731.78
2022-12-14T15:35:22.017Z,99750.31
2022-12-14T15:38:00.382Z,99772.44
2022-12-14T15:40:35.526Z,99751.09
2022-12-14T15:43:25.128Z,99734.56
2022-12-14T15:46:04.185Z,99727.16
2022-12-14T15:48:35.530Z,99726.06
2022-12-14T15:51:13.746Z,99720.94
2022-12-14T15:53:54.878Z,99715.28
2022-12-14T15:56:29.336Z,99709.66
2022-12-14T15:59:07.744Z,99710.81
2022-12-14T16:01:51.732Z,99713.28
2022-12-14T16:04:29.292Z,99712.03
2022-12-14T16:07:08.639Z,99710.88
2022-12-14T16:09:51.203Z,99710.28
2022-12-14T16:12:45.167Z,99718.72
2022-12-14T16:15:30.303Z,99722.44
2022-12-14T16:18:04.765Z,99734.88
2022-12-14T16:20:41.514Z,99733.72
2022-12-14T16:23:18.096Z,99736.16
2022-12-14T16:25:58.349Z,99742.19
2022-12-14T16:28:29.541Z,99742.13
2022-12-14T16:31:02.643Z,99739.75
2022-12-14T16:33:35.275Z,99734.00
2022-12-14T16:36:24.462Z,99739.25
2022-12-14T16:39:04.083Z,99736.41
2022-12-14T16:41:41.474Z,99732.84
2022-12-14T16:44:39.730Z,99732.41
2022-12-14T16:47:16.080Z,99734.50
2022-12-14T16:50:00.249Z,99735.34
2022-12-14T16:52:34.891Z,99736.03
2022-12-14T16:55:18.888Z,99744.97
2022-12-14T16:57:49.981Z,99742.06
2022-12-14T17:00:29.841Z,99735.28
2022-12-14T17:03:02.863Z,99736.41
2022-12-14T17:05:42.100Z,99730.78
2022-12-14T17:08:21.856Z,99737.19
2022-12-14T17:10:53.251Z,99725.50
2022-12-14T17:13:26.350Z,99737.19
2022-12-14T17:16:04.623Z,99734.75
2022-12-14T17:18:43.777Z,99736.41
2022-12-14T17:21:22.806Z,99740.03
2022-12-14T17:24:02.642Z,99741.63
2022-12-14T17:26:35.495Z,99741.72
2022-12-14T17:29:04.087Z,99749.03
2022-12-14T17:31:47.614Z,99751.78
2022-12-14T17:34:28.134Z,99754.94
2022-12-14T17:37:15.089Z,99751.75
2022-12-14T17:39:59.780Z,99755.91
2022-12-14T17:42:34.032Z,99757.47
2022-12-14T17:45:06.084Z,99767.50
2022-12-14T17:47:34.598Z,99770.38
2022-12-14T17:50:05.903Z,99767.13
2022-12-14T17:52:41.123Z,99773.16
2022-12-14T17:55:24.856Z,99771.19
2022-12-14T17:57:53.670Z,99767.59
2022-12-14T18:00:49.073Z,99761.56
2022-12-14T18:03:20.934Z,99766.34
2022-12-14T18:05:52.455Z,99762.84
2022-12-14T18:08:23.544Z,99761.59
2022-12-14T18:10:57.317Z,99766.84
2022-12-14T18:13:31.735Z,99766.38
2022-12-14T18:16:05.560Z,99768.06
2022-12-14T18:18:35.924Z,99775.38
2022-12-14T18:21:04.949Z,99775.19
2022-12-14T18:23:38.433Z,99776.84
2022-12-14T18:26:06.475Z,99769.69
2022-12-14T18:28:37.299Z,99780.59
2022-12-14T18:31:07.546Z,99771.31
2022-12-14T18:33:39.277Z,99771.72
2022-12-14T18:36:12.082Z,99773.41
2022-12-14T18:38:40.217Z,99765.00
2022-12-14T18:41:13.738Z,99776.91
2022-12-14T18:43:44.053Z,99784.06
2022-12-14T18:46:17.561Z,99777.19
2022-12-14T18:48:50.834Z,99783.72
2022-12-14T18:51:27.299Z,99773.72
2022-12-14T18:53:59.788Z,99781.72
2022-12-14T18:56:29.978Z,99782.91
2022-12-14T18:59:03.345Z,99770.97
2022-12-14T19:01:35.967Z,99775.81
2022-12-14T19:04:09.520Z,99781.34
2022-12-14T19:06:44.914Z,99779.66
2022-12-14T19:09:14.785Z,99775.19
2022-12-14T19:11:54.543Z,99776.88
2022-12-14T19:14:22.364Z,99763.59
2022-12-14T19:16:52.782Z,99759.22
2022-12-14T19:19:26.588Z,99755.69
2022-12-14T19:21:59.553Z,99751.25
2022-12-14T19:24:29.912Z,99756.91
2022-12-14T19:27:00.427Z,99748.44
2022-12-14T19:29:28.349Z,99746.00
2022-12-14T19:32:00.410Z,99756.06
2022-12-14T19:34:32.820Z,99765.75
2022-12-14T19:37:00.725Z,99765.78
2022-12-14T19:39:30.912Z,99767.38
2022-12-14T19:41:58.904Z,99770.97
2022-12-14T19:44:29.229Z,99777.00
2022-12-14T19:47:00.738Z,99778.66
2022-12-14T19:49:33.315Z,99769.75
2022-12-14T19:52:04.395Z,99777.84
2022-12-14T19:54:34.883Z,99777.31
2022-12-14T19:57:03.195Z,99776.59
2022-12-14T19:59:36.268Z,99773.75
2022-12-14T20:02:08.034Z,99772.13
2022-12-14T20:04:41.915Z,99783.44
2022-12-14T20:07:14.339Z,99778.97
2022-12-14T20:09:44.721Z,99775.00
2022-12-14T20:12:12.800Z,99773.38
2022-12-14T20:14:44.686Z,99765.34
2022-12-14T20:17:20.263Z,99762.97
2022-12-14T20:19:48.843Z,99770.19
2022-12-14T20:22:22.449Z,99761.31
2022-12-14T20:24:52.741Z,99760.47
2022-12-14T20:27:20.880Z,99757.63
2022-12-14T20:29:52.056Z,99772.16
2022-12-14T20:32:22.833Z,99757.59
2022-12-14T20:34:53.721Z,99757.59
2022-12-14T20:37:24.019Z,99770.94
2022-12-14T20:39:57.249Z,99769.00
2022-12-14T20:42:29.507Z,99764.97
2022-12-14T20:45:07.067Z,99763.28
2022-12-14T20:47:38.255Z,99764.38
2022-12-14T20:50:06.799Z,99766.38
2022-12-14T20:52:36.957Z,99761.97
2022-12-14T20:55:08.058Z,99770.06
2022-12-14T20:57:43.953Z,99764.03
2022-12-14T21:00:15.600Z,99768.97
2022-12-14T21:02:49.180Z,99774.22
2022-12-14T21:05:17.429Z,99771.34
2022-12-14T21:07:48.258Z,99768.13
2022-12-14T21:10:18.949Z,99750.75
2022-12-14T21:12:48.407Z,99753.50
2022-12-14T21:15:19.431Z,99753.53
2022-12-14T21:17:47.826Z,99748.38
2022-12-14T21:20:18.923Z,99735.19
2022-12-14T21:22:49.796Z,99738.00
2022-12-14T21:25:20.171Z,99733.97
2022-12-14T21:27:47.791Z,99737.19
2022-12-14T21:30:18.524Z,99732.66
2022-12-14T21:32:51.239Z,99735.88
2022-12-14T21:35:22.161Z,99740.66
2022-12-14T21:37:52.930Z,99734.22
2022-12-14T21:40:39.808Z,99737.03
2022-12-14T21:43:08.034Z,99745.13
2022-12-14T21:45:38.906Z,99742.38
2022-12-14T21:48:09.398Z,99736.38
2022-12-14T21:50:42.430Z,99736.38
2022-12-14T21:53:11.052Z,99731.53
2022-12-14T21:55:51.173Z,99734.63
2022-12-14T21:58:19.214Z,99733.94
2022-12-14T22:00:49.449Z,99731.53
2022-12-14T22:03:24.204Z,99746.28
2022-12-14T22:05:55.184Z,99743.38
2022-12-14T22:08:31.368Z,99738.81
2022-12-14T22:11:03.609Z,99729.66
2022-12-14T22:13:34.106Z,99738.00
2022-12-14T22:16:06.457Z,99742.66
2022-12-14T22:18:34.566Z,99744.31
2022-12-14T22:21:05.608Z,99748.72
2022-12-14T22:23:42.903Z,99755.84
2022-12-14T22:26:17.281Z,99755.78
2022-12-14T22:28:54.502Z,99763.25
2022-12-14T22:31:22.989Z,99754.66
2022-12-14T22:33:55.082Z,99752.09
2022-12-14T22:36:26.531Z,99748.69
2022-12-14T22:38:57.453Z,99745.88
2022-12-14T22:41:30.733Z,99747.41
2022-12-14T22:44:02.027Z,99752.28
2022-12-14T22:46:34.236Z,99756.56
2022-12-14T22:49:07.477Z,99752.09
2022-12-14T22:51:38.596Z,99752.06
2022-12-14T22:54:12.069Z,99748.00
2022-12-14T22:56:47.733Z,99766.78
2022-12-14T22:59:30.377Z,99778.19
2022-12-14T23:01:59.506Z,99773.69
2022-12-14T23:04:27.700Z,99765.34
2022-12-14T23:06:57.420Z,99768.50
2022-12-14T23:09:43.693Z,99764.78
2022-12-14T23:12:32.748Z,99771.59
2022-12-14T23:15:19.037Z,99778.94
2022-12-14T23:18:05.303Z,99788.81
2022-12-14T23:20:56.987Z,99795.03
2022-12-14T23:23:44.216Z,99795.81
2022-12-14T23:26:33.530Z,99794.91
2022-12-14T23:29:20.479Z,99796.44
2022-12-14T23:32:07.058Z,99795.34
2022-12-14T23:34:56.578Z,99800.97
2022-12-14T23:37:43.849Z,99794.53
2022-12-14T23:40:30.017Z,99798.56
2022-12-14T23:43:30.879Z,99803.50
2022-12-14T23:46:18.377Z,99800.69
2022-12-14T23:49:10.582Z,99811.53
2022-12-14T23:52:02.761Z,99811.84
2022-12-14T23:54:51.590Z,99813.47
2022-12-14T23:57:40.400Z,99810.28
